Time;durP1;ratioP1;P1;durP2;ratioP2;P2;SDS_P1;SDS_P2;PMS_P1;PMS_P2;Temp;Humidity;BMP_temperature;BMP_pressure;BME280_temperature;BME280_humidity;BME280_pressure;Samples;Min_cycle;Max_cycle;Signal;HPM_P1;HPM_P2
2023/01/26 00:00:58;;;;;;;26.17;8.38;;;1.60;99.90;;;1.07;100.00;101934.19;5142944;28;20047;-72
2023/01/26 00:03:30;;;;;;;27.65;8.63;;;1.50;99.90;;;1.02;100.00;101932.88;5143645;28;20051;-72
2023/01/26 00:06:05;;;;;;;28.40;9.43;;;1.50;99.90;;;1.01;100.00;101939.69;5144471;28;20416;-72
2023/01/26 00:08:38;;;;;;;26.85;8.45;;;1.50;99.90;;;1.02;100.00;101930.31;5143737;28;20042;-72
2023/01/26 00:11:13;;;;;;;27.10;8.68;;;1.50;99.90;;;1.07;100.00;101929.06;5143721;28;20049;-72
2023/01/26 00:13:46;;;;;;;26.23;7.75;;;1.50;99.90;;;1.11;100.00;101932.78;5146921;28;20045;-72
2023/01/26 00:16:19;;;;;;;24.27;7.65;;;1.60;99.90;;;1.09;100.00;101919.81;5143682;28;20047;-72
2023/01/26 00:18:51;;;;;;;22.50;7.78;;;1.50;99.90;;;1.11;100.00;101919.94;5142993;28;20062;-72
2023/01/26 00:21:25;;;;;;;26.88;8.02;;;1.60;99.90;;;1.12;100.00;101912.41;5142586;28;20503;-72
2023/01/26 00:23:59;;;;;;;22.52;7.40;;;1.50;99.90;;;1.13;100.00;101911.66;5142865;28;20129;-72
2023/01/26 00:26:31;;;;;;;28.02;7.25;;;1.50;99.90;;;1.13;100.00;101911.66;5144188;28;20078;-72
2023/01/26 00:29:03;;;;;;;27.75;7.97;;;1.50;99.90;;;1.11;100.00;101912.25;5143750;28;20051;-72
2023/01/26 00:31:36;;;;;;;26.88;8.63;;;1.50;99.90;;;1.12;100.00;101914.97;5142867;28;20579;-72
2023/01/26 00:34:09;;;;;;;28.50;8.93;;;1.50;99.90;;;1.11;100.00;101905.47;5143771;28;20043;-72
2023/01/26 00:36:42;;;;;;;28.42;8.38;;;1.50;99.90;;;1.12;100.00;101904.72;5141968;28;20487;-72
2023/01/26 00:39:14;;;;;;;27.67;9.13;;;1.50;99.90;;;1.13;100.00;101893.66;5143093;28;20113;-72
2023/01/26 00:44:41;;;;;;;29.75;7.53;;;1.50;99.90;;;1.11;100.00;101890.06;5143251;28;20202;-72
2023/01/26 00:47:15;;;;;;;33.67;8.25;;;1.50;99.90;;;1.13;100.00;101883.38;5143549;28;20050;-72
2023/01/26 00:49:47;;;;;;;27.05;8.25;;;1.50;99.90;;;1.12;100.00;101886.72;5155550;28;20049;-72
2023/01/26 00:52:20;;;;;;;35.80;9.75;;;1.50;99.90;;;1.12;100.00;101885.84;5141499;28;20051;-72
2023/01/26 00:54:52;;;;;;;31.13;9.40;;;1.50;99.90;;;1.13;100.00;101891.09;5140438;28;20524;-72
2023/01/26 00:57:25;;;;;;;32.65;11.18;;;1.50;99.90;;;1.13;100.00;101888.53;5143071;28;20047;-72
2023/01/26 00:59:58;;;;;;;34.17;9.75;;;1.50;99.90;;;1.12;100.00;101894.44;5141489;28;20039;-72
2023/01/26 01:02:30;;;;;;;30.85;8.90;;;1.50;99.90;;;1.12;100.00;101881.59;5141904;28;20508;-72
2023/01/26 01:05:03;;;;;;;42.30;11.45;;;1.50;99.90;;;1.06;100.00;101891.31;5143009;28;20053;-72
2023/01/26 01:07:37;;;;;;;34.08;9.15;;;1.50;99.90;;;1.03;100.00;101878.19;5141933;28;20056;-72
2023/01/26 01:10:10;;;;;;;39.80;10.63;;;1.40;99.90;;;0.96;100.00;101873.25;5157829;28;20051;-72
2023/01/26 01:12:43;;;;;;;34.97;10.73;;;1.40;99.90;;;0.91;100.00;101884.78;5141263;28;20408;-72
2023/01/26 01:15:16;;;;;;;34.03;9.73;;;1.30;99.90;;;0.84;100.00;101878.19;5141852;28;20505;-72
2023/01/26 01:17:49;;;;;;;32.03;9.68;;;1.30;99.90;;;0.84;100.00;101873.03;5139578;28;20050;-72
2023/01/26 01:20:21;;;;;;;33.85;10.30;;;1.30;99.90;;;0.87;100.00;101878.47;5139554;28;20037;-72
2023/01/26 01:22:54;;;;;;;34.40;9.00;;;1.30;99.90;;;0.87;100.00;101877.56;5141042;28;20121;-72
2023/01/26 01:25:26;;;;;;;39.58;9.75;;;1.30;99.90;;;0.90;100.00;101872.69;5141431;28;20593;-71
2023/01/26 01:27:59;;;;;;;35.55;10.48;;;1.30;99.90;;;0.85;100.00;101873.94;5141364;28;20046;-72
2023/01/26 01:30:31;;;;;;;43.35;11.80;;;1.30;99.90;;;0.84;100.00;101864.44;5140936;28;20082;-72
2023/01/26 01:33:03;;;;;;;35.70;10.25;;;1.30;99.90;;;0.84;100.00;101864.44;5157602;28;20082;-72
2023/01/26 01:35:35;;;;;;;36.60;10.63;;;1.30;99.90;;;0.84;100.00;101867.00;5143054;28;20050;-72
2023/01/26 01:38:10;;;;;;;37.67;10.05;;;1.30;99.90;;;0.84;100.00;101867.00;5142478;28;20118;-72
2023/01/26 01:40:43;;;;;;;42.22;11.32;;;1.30;99.90;;;0.85;100.00;101856.91;5156551;28;20047;-72
2023/01/26 01:43:15;;;;;;;36.53;10.07;;;1.30;99.90;;;0.91;100.00;101864.22;5141995;28;20510;-72
2023/01/26 01:45:49;;;;;;;34.95;9.80;;;1.30;99.90;;;0.92;100.00;101860.94;5141072;28;20410;-72
2023/01/26 01:48:29;;;;;;;40.13;10.98;;;1.40;99.90;;;0.90;100.00;101857.31;5141151;28;20055;-72
2023/01/26 01:51:10;;;;;;;40.17;11.23;;;1.30;99.90;;;0.82;100.00;101860.09;5138676;28;20520;-72
2023/01/26 01:53:48;;;;;;;44.22;11.57;;;1.30;99.90;;;0.79;100.00;101854.69;5140255;28;20443;-72
2023/01/26 01:56:28;;;;;;;36.55;9.65;;;1.20;99.90;;;0.82;100.00;101860.09;5139890;28;20034;-72
2023/01/26 01:59:03;;;;;;;43.97;12.07;;;1.20;99.90;;;0.80;100.00;101846.22;5141411;28;20420;-72
2023/01/26 02:01:35;;;;;;;40.83;10.15;;;1.20;99.90;;;0.78;100.00;101847.75;5141650;28;20542;-72
2023/01/26 02:04:08;;;;;;;40.60;10.35;;;1.20;99.90;;;0.78;100.00;101845.19;5141739;28;20043;-72
2023/01/26 02:11:02;;;;;;;40.15;10.25;;;1.20;99.90;;;0.71;100.00;101824.84;5143120;28;20491;-72
2023/01/26 02:13:37;;;;;;;33.83;9.55;;;1.20;99.90;;;0.72;100.00;101824.09;5152000;28;20063;-72
2023/01/26 02:16:09;;;;;;;43.20;12.02;;;1.10;99.90;;;0.72;100.00;101820.63;5141545;28;20059;-72
2023/01/26 02:18:41;;;;;;;37.67;10.40;;;1.20;99.90;;;0.69;100.00;101825.47;5142345;28;20071;-72
2023/01/26 02:21:17;;;;;;;35.28;10.18;;;1.10;99.90;;;0.67;100.00;101822.78;5141366;28;20042;-72
2023/01/26 02:24:07;;;;;;;33.92;9.18;;;1.10;99.90;;;0.71;100.00;101819.69;5141276;28;20051;-72
2023/01/26 02:26:42;;;;;;;35.70;10.30;;;1.10;99.90;;;0.69;100.00;101822.91;5141709;28;20054;-72
2023/01/26 02:29:14;;;;;;;38.80;10.23;;;1.10;99.90;;;0.64;100.00;101819.91;5139965;28;20150;-71
2023/01/26 02:31:49;;;;;;;45.80;11.15;;;1.10;99.90;;;0.63;100.00;101819.78;5135877;28;20535;-72
2023/01/26 02:34:23;;;;;;;35.58;9.88;;;1.10;99.90;;;0.65;100.00;101814.03;5136991;28;20051;-71
2023/01/26 02:36:59;;;;;;;34.03;9.77;;;1.10;99.90;;;0.71;100.00;101819.69;5149893;28;20089;-72
2023/01/26 02:39:46;;;;;;;33.72;8.40;;;1.10;99.90;;;0.78;100.00;101813.44;5138773;28;20053;-72
2023/01/26 02:42:40;;;;;;;41.42;11.25;;;1.20;99.90;;;0.80;100.00;101804.25;5143608;28;20058;-71
2023/01/26 02:45:16;;;;;;;35.58;10.10;;;1.20;99.90;;;0.76;100.00;101800.47;5140840;28;20447;-72
2023/01/26 02:47:49;;;;;;;38.10;9.88;;;1.20;99.90;;;0.75;100.00;101802.94;5140585;28;20075;-72
2023/01/26 02:50:20;;;;;;;37.90;8.93;;;1.20;99.90;;;0.73;100.00;101802.78;5140215;28;20047;-71
2023/01/26 02:52:52;;;;;;;40.75;11.02;;;1.20;99.90;;;0.71;100.00;101800.84;5140699;28;20078;-72
2023/01/26 02:55:27;;;;;;;34.72;9.18;;;1.20;99.90;;;0.71;100.00;101801.72;5143264;28;20042;-72
2023/01/26 02:58:04;;;;;;;39.42;9.90;;;1.20;99.90;;;0.73;100.00;101807.03;5144281;28;20047;-72
2023/01/26 03:00:40;;;;;;;38.63;10.07;;;1.20;99.90;;;0.71;100.00;101798.28;5139790;28;20137;-72
2023/01/26 03:03:19;;;;;;;35.47;9.77;;;1.20;99.90;;;0.69;100.00;101798.13;5142499;28;20055;-72
2023/01/26 03:05:53;;;;;;;36.63;9.70;;;1.10;99.90;;;0.68;100.00;101796.34;5144312;28;20097;-72
2023/01/26 03:08:25;;;;;;;39.92;10.32;;;1.20;99.90;;;0.66;100.00;101795.31;5128324;28;20158;-72
2023/01/26 03:10:58;;;;;;;38.25;9.27;;;1.10;99.90;;;0.70;100.00;101779.41;5144850;28;20062;-72
2023/01/26 03:13:32;;;;;;;30.20;8.07;;;1.10;99.90;;;0.76;100.00;101776.50;5143924;28;20082;-72
2023/01/26 03:16:10;;;;;;;31.80;8.77;;;1.20;99.90;;;0.80;100.00;101770.88;5143978;28;20069;-72
2023/01/26 03:27:28;;;;;;;32.97;9.50;;;1.20;99.90;;;0.80;100.00;101764.06;5143400;28;20047;-72
2023/01/26 03:30:10;;;;;;;32.40;8.18;;;1.20;99.90;;;0.82;100.00;101757.41;5143510;28;20043;-72
2023/01/26 03:32:43;;;;;;;33.17;7.80;;;1.20;99.90;;;0.87;100.00;101767.19;5160101;28;20050;-71
2023/01/26 03:35:21;;;;;;;31.48;9.00;;;1.30;99.90;;;0.89;100.00;101770.78;5160175;28;20061;-71
2023/01/26 03:37:54;;;;;;;33.28;9.30;;;1.30;99.90;;;0.88;100.00;101762.19;5143335;28;20056;-71
2023/01/26 03:57:40;;;;;;;28.10;8.15;;;1.30;99.90;;;0.93;100.00;101754.91;5160396;28;20083;-71
2023/01/26 04:00:14;;;;;;;29.13;7.38;;;1.30;99.90;;;0.94;100.00;101747.31;5143648;28;20486;-71
2023/01/26 04:08:31;;;;;;;28.45;7.60;;;1.40;99.90;;;0.99;100.00;101756.34;5164927;28;20042;-71
2023/01/26 04:11:06;;;;;;;31.25;8.77;;;1.40;99.90;;;0.99;100.00;101753.78;5179560;28;20051;-71
2023/01/26 04:22:16;;;;;;;30.27;9.23;;;1.30;99.90;;;0.82;100.00;101757.41;5191756;28;20045;-61
2023/01/26 04:24:52;;;;;;;35.42;9.30;;;1.20;99.90;;;0.80;100.00;101748.66;5200055;28;20543;-62
2023/01/26 04:27:25;;;;;;;29.08;9.35;;;1.20;99.90;;;0.75;100.00;101757.63;5183746;28;20412;-61
2023/01/26 04:29:57;;;;;;;26.95;8.43;;;1.20;99.90;;;0.75;100.00;101754.16;5199897;28;20161;-61
2023/01/26 04:32:29;;;;;;;26.27;7.60;;;1.10;99.90;;;0.75;100.00;101744.78;5200082;28;20044;-61
2023/01/26 04:35:03;;;;;;;24.10;7.25;;;1.20;99.90;;;0.75;100.00;101739.66;5184664;28;20041;-61
2023/01/26 04:37:38;;;;;;;26.55;7.30;;;1.20;99.90;;;0.77;100.00;101748.38;5199892;28;20414;-61
2023/01/26 04:40:11;;;;;;;27.10;7.82;;;1.20;99.90;;;0.78;100.00;101744.16;5182912;28;20046;-61
2023/01/26 04:42:44;;;;;;;25.15;7.57;;;1.20;99.90;;;0.79;100.00;101739.19;5199846;28;20434;-60
2023/01/26 04:45:18;;;;;;;25.60;7.55;;;1.20;99.90;;;0.82;100.00;101731.72;5199551;28;20053;-61
2023/01/26 04:47:51;;;;;;;30.38;8.90;;;1.20;99.90;;;0.85;100.00;101740.44;5182864;28;20524;-60
2023/01/26 04:50:25;;;;;;;25.08;8.13;;;1.30;99.90;;;0.86;100.00;101737.16;5184045;28;20065;-60
2023/01/26 04:52:59;;;;;;;;;;;1.30;99.90;;;0.85;100.00;101738.81;5200025;28;20049;-61
2023/01/26 04:55:31;;;;;;;24.95;7.50;;;1.30;99.90;;;0.85;100.00;101741.38;5184144;28;20044;-62
2023/01/26 04:58:04;;;;;;;24.70;7.25;;;1.30;99.90;;;0.86;100.00;101747.41;5199195;28;20514;-62
2023/01/26 05:00:37;;;;;;;25.77;8.60;;;1.30;99.90;;;0.85;100.00;101750.72;5199441;28;20457;-61
2023/01/26 05:03:10;;;;;;;24.48;7.18;;;1.30;99.90;;;0.79;100.00;101744.31;5184042;28;20051;-62
2023/01/26 05:05:47;;;;;;;26.75;7.90;;;1.20;99.90;;;0.74;100.00;101745.56;5182636;28;20133;-61
2023/01/26 05:08:20;;;;;;;22.30;7.00;;;1.20;99.90;;;0.71;100.00;101744.38;5183963;28;20084;-60
2023/01/26 05:10:54;;;;;;;24.50;7.13;;;1.10;99.90;;;0.69;100.00;101749.38;5183870;28;20124;-61
2023/01/26 05:13:48;;;;;;;22.67;6.85;;;1.10;99.90;;;0.73;100.00;101732.59;5199208;28;20136;-61
2023/01/26 05:16:28;;;;;;;24.50;7.28;;;1.10;99.90;;;0.75;100.00;101734.53;5198593;28;20498;-60
2023/01/26 05:19:12;;;;;;;25.20;7.20;;;1.10;99.90;;;0.78;100.00;101745.06;5183434;28;20057;-62
2023/01/26 05:22:01;;;;;;;24.38;8.13;;;1.20;99.90;;;0.79;100.00;101749.44;5182746;28;20061;-62
2023/01/26 05:24:35;;;;;;;25.70;7.85;;;1.20;99.90;;;0.79;100.00;101740.84;5198918;28;20104;-61
2023/01/26 05:27:22;;;;;;;22.65;7.88;;;1.20;99.90;;;0.79;100.00;101746.88;5198850;28;20045;-61
2023/01/26 05:29:59;;;;;;;24.98;7.10;;;1.20;99.90;;;0.81;100.00;101747.91;5198515;28;20050;-62
2023/01/26 05:32:32;;;;;;;25.33;6.93;;;1.20;99.90;;;0.84;100.00;101743.78;5199069;28;20053;-61
2023/01/26 05:35:05;;;;;;;18.75;5.68;;;1.20;99.90;;;0.86;100.00;101744.84;5183862;28;20049;-61
2023/01/26 05:37:41;;;;;;;24.40;7.32;;;1.30;99.90;;;0.88;100.00;101745.88;5199108;28;20534;-61
2023/01/26 05:40:14;;;;;;;22.92;6.95;;;1.30;99.90;;;0.87;100.00;101751.78;5181994;28;20046;-62
2023/01/26 05:42:48;;;;;;;29.02;7.85;;;1.30;99.90;;;0.86;100.00;101750.88;5183811;28;20033;-61
2023/01/26 05:45:27;;;;;;;20.50;6.93;;;1.30;99.90;;;0.84;100.00;101751.50;5182338;28;20137;-60
2023/01/26 05:48:02;;;;;;;24.02;7.43;;;1.20;99.90;;;0.82;100.00;101753.94;5183371;28;20053;-62
2023/01/26 05:50:36;;;;;;;29.92;8.10;;;1.20;99.90;;;0.79;100.00;101759.72;5198783;28;20046;-62
2023/01/26 05:53:27;;;;;;;27.48;8.18;;;1.20;99.90;;;0.71;100.00;101760.66;5199478;28;20050;-61
2023/01/26 05:55:59;;;;;;;24.88;7.28;;;1.20;99.90;;;0.66;100.00;101754.25;5200096;28;20537;-61
2023/01/26 05:58:33;;;;;;;32.20;9.02;;;1.10;99.90;;;0.63;100.00;101753.97;5183643;28;20045;-61
2023/01/26 06:01:05;;;;;;;24.00;7.72;;;1.10;99.90;;;0.64;100.00;101754.84;5199349;28;20100;-59
2023/01/26 06:03:47;;;;;;;26.45;6.97;;;1.10;99.90;;;0.69;100.00;101761.31;5182497;28;20046;-63
2023/01/26 06:06:19;;;;;;;22.30;7.53;;;1.10;99.90;;;0.72;100.00;101756.47;5198340;28;20053;-64
2023/01/26 06:08:58;;;;;;;22.90;7.43;;;1.10;99.90;;;0.76;100.00;101746.59;5183383;28;20490;-61
2023/01/26 06:11:36;;;;;;;25.15;7.60;;;1.20;99.90;;;0.78;100.00;101749.28;5183711;28;20514;-62
2023/01/26 06:14:27;;;;;;;21.20;6.97;;;1.20;99.90;;;0.81;100.00;101754.72;5198636;28;20064;-63
2023/01/26 06:17:01;;;;;;;24.38;8.15;;;1.20;99.90;;;0.81;100.00;101755.59;5183360;28;20120;-61
2023/01/26 06:19:34;;;;;;;24.00;6.88;;;1.20;99.90;;;0.81;100.00;101760.75;5181917;28;20498;-63
2023/01/26 06:22:08;;;;;;;26.33;7.80;;;1.20;99.90;;;0.80;100.00;101764.06;5198200;28;20050;-63
2023/01/26 06:24:44;;;;;;;26.83;8.10;;;1.20;99.90;;;0.82;100.00;101765.09;5182162;28;20301;-63
2023/01/26 06:27:17;;;;;;;24.75;7.97;;;1.20;99.90;;;0.84;100.00;101772.03;5198223;28;20133;-63
2023/01/26 06:29:52;;;;;;;35.60;9.82;;;1.20;99.90;;;0.76;100.00;101761.97;5202449;28;20099;-64
2023/01/26 06:32:26;;;;;;;27.95;9.45;;;1.20;99.90;;;0.70;100.00;101764.00;5202482;28;20049;-63
2023/01/26 06:35:02;;;;;;;26.52;8.32;;;1.10;99.90;;;0.70;100.00;101761.44;5187186;28;20046;-62
2023/01/26 06:37:35;;;;;;;29.23;9.13;;;1.10;99.90;;;0.67;100.00;101766.31;5187021;28;20044;-61
2023/01/26 06:40:11;;;;;;;28.48;8.32;;;1.10;99.90;;;0.68;100.00;101773.25;5201613;28;20152;-62
2023/01/26 06:42:48;;;;;;;30.60;8.63;;;1.10;99.90;;;0.71;100.00;101773.50;5202104;28;20052;-62
2023/01/26 06:45:21;;;;;;;22.65;7.25;;;1.10;99.90;;;0.73;100.00;101776.22;5202390;28;20053;-62
2023/01/26 06:47:55;;;;;;;27.15;7.97;;;1.10;99.90;;;0.74;100.00;101776.34;5202201;28;20051;-62
2023/01/26 06:50:34;;;;;;;25.35;7.63;;;1.20;99.90;;;0.78;100.00;101780.09;5185438;28;20046;-62
2023/01/26 06:53:26;;;;;;;25.23;7.78;;;1.20;99.90;;;0.79;100.00;101781.91;5186022;28;20062;-62
2023/01/26 06:56:18;;;;;;;28.50;8.15;;;1.20;99.90;;;0.79;100.00;101782.81;5202184;28;20042;-63
2023/01/26 06:59:05;;;;;;;28.50;8.65;;;1.20;99.90;;;0.77;100.00;101780.84;5201543;28;20092;-69
2023/01/26 07:02:19;;;;;;;24.52;7.07;;;1.20;99.90;;;0.73;100.00;101782.25;5164237;28;20050;-66
2023/01/26 07:04:52;;;;;;;27.52;8.07;;;1.20;99.90;;;0.73;100.00;101791.63;5186610;28;20076;-53
2023/01/26 07:07:24;;;;;;;22.20;7.47;;;1.10;99.90;;;0.72;100.00;101782.13;5185833;28;20050;-53
2023/01/26 07:09:56;;;;;;;23.35;7.10;;;1.10;99.90;;;0.74;100.00;101783.16;5185610;28;20056;-52
2023/01/26 07:12:40;;;;;;;26.23;8.25;;;1.10;99.90;;;0.74;100.00;101784.06;5186283;28;20045;-53
2023/01/26 07:15:13;;;;;;;27.08;7.97;;;1.20;99.90;;;0.72;100.00;101784.69;5186227;28;20045;-53
2023/01/26 07:17:45;;;;;;;25.13;7.70;;;1.20;99.90;;;0.68;100.00;101793.78;5186301;28;20048;-52
2023/01/26 07:20:17;;;;;;;29.40;8.32;;;1.10;99.90;;;0.62;100.00;101790.66;5187469;28;20075;-53
2023/01/26 07:22:49;;;;;;;28.60;8.93;;;1.10;99.90;;;0.58;100.00;101791.13;5187700;28;20046;-52
2023/01/26 07:25:21;;;;;;;24.83;8.00;;;1.00;99.90;;;0.57;100.00;101794.47;5187839;28;20461;-52
2023/01/26 07:27:58;;;;;;;30.25;9.15;;;1.00;99.90;;;0.56;100.00;101797.78;5187747;28;20038;-52
2023/01/26 07:30:30;;;;;;;28.08;7.75;;;1.00;99.90;;;0.56;100.00;101796.91;5187427;28;20045;-53
2023/01/26 07:33:02;;;;;;;27.52;8.50;;;1.00;99.90;;;0.55;100.00;101790.88;5187359;28;20049;-52
2023/01/26 07:35:34;;;;;;;26.90;8.20;;;1.00;99.90;;;0.54;100.00;101789.06;5187422;28;20042;-52
2023/01/26 07:38:06;;;;;;;23.05;7.55;;;1.00;99.90;;;0.57;100.00;101784.19;5187765;28;20038;-52
2023/01/26 07:40:39;;;;;;;21.65;6.55;;;1.00;99.90;;;0.60;100.00;101789.63;5186607;28;20451;-52
2023/01/26 07:43:13;;;;;;;26.65;7.75;;;1.00;99.90;;;0.63;100.00;101787.31;5188454;28;20056;-52
2023/01/26 07:45:57;;;;;;;26.70;8.35;;;1.10;99.90;;;0.62;100.00;101790.66;5203254;28;20058;-52
2023/01/26 07:48:30;;;;;;;24.40;7.95;;;1.10;99.90;;;0.65;100.00;101788.38;5187871;28;20056;-52
2023/01/26 07:51:04;;;;;;;26.02;7.68;;;1.10;99.90;;;0.72;100.00;101790.72;5187847;28;20049;-52
2023/01/26 07:53:38;;;;;;;23.92;6.70;;;1.10;99.90;;;0.78;100.00;101781.00;5188196;28;20069;-52
2023/01/26 07:56:12;;;;;;;24.90;6.93;;;1.20;99.90;;;0.81;100.00;101776.13;5188613;28;20056;-52
2023/01/26 07:58:50;;;;;;;20.02;6.32;;;1.20;99.90;;;0.82;100.00;101777.94;5187768;28;20053;-52
2023/01/26 08:01:23;;;;;;;22.50;6.28;;;1.20;99.90;;;0.81;100.00;101781.28;5188027;28;20045;-53
2023/01/26 08:03:55;;;;;;;24.98;7.50;;;1.20;99.90;;;0.90;100.00;101780.28;5188044;28;20046;-50
2023/01/26 08:06:27;;;;;;;25.13;7.07;;;1.30;99.90;;;1.06;100.00;101783.44;5188372;28;20050;-50
2023/01/26 08:08:59;;;;;;;24.67;6.82;;;1.40;99.90;;;1.09;100.00;101783.72;5188038;28;20402;-50
2023/01/26 08:11:31;;;;;;;22.80;7.85;;;1.50;99.90;;;1.13;100.00;101777.19;5187797;28;20052;-50
2023/01/26 08:14:04;;;;;;;22.65;6.45;;;1.50;99.90;;;1.14;100.00;101774.75;5188166;28;20408;-50
2023/01/26 08:16:36;;;;;;;20.48;6.03;;;1.60;99.90;;;1.17;100.00;101780.13;5188606;28;20486;-51
2023/01/26 08:19:09;;;;;;;17.55;5.88;;;1.60;99.90;;;1.20;100.00;101788.13;5187938;28;20085;-51
2023/01/26 08:21:41;;;;;;;23.73;5.88;;;1.60;99.90;;;1.19;100.00;101785.44;5203471;28;20050;-51
2023/01/26 08:24:14;;;;;;;22.92;7.68;;;1.60;99.90;;;1.14;100.00;101795.28;5188253;28;20044;-51
2023/01/26 08:26:46;;;;;;;24.60;7.47;;;1.50;99.90;;;1.09;100.00;101792.31;5187700;28;20048;-51
2023/01/26 08:29:19;;;;;;;20.77;6.13;;;1.50;99.90;;;1.24;100.00;101785.06;5186553;28;20077;-51
2023/01/26 08:31:52;;;;;;;23.33;7.03;;;1.70;99.90;;;1.31;100.00;101781.38;5185045;28;20096;-50
2023/01/26 08:34:25;;;;;;;20.73;5.68;;;1.70;99.90;;;1.28;100.00;101786.22;5189056;28;20125;-52
2023/01/26 08:36:57;;;;;;;28.80;8.05;;;1.70;99.90;;;1.22;100.00;101791.72;5203737;28;20049;-51
2023/01/26 08:39:29;;;;;;;24.77;8.18;;;1.60;99.90;;;1.17;100.00;101792.97;5187487;28;20128;-53
2023/01/26 08:42:04;;;;;;;26.70;7.35;;;1.60;99.90;;;1.13;100.00;101796.06;5187937;28;20042;-52
2023/01/26 08:44:38;;;;;;;27.17;8.48;;;1.50;99.90;;;1.06;100.00;101798.84;5202606;28;20042;-52
2023/01/26 08:47:10;;;;;;;27.85;7.95;;;1.50;99.90;;;0.98;100.00;101799.84;5187128;28;20458;-48
2023/01/26 08:49:42;;;;;;;29.55;8.20;;;1.40;99.90;;;0.97;100.00;101798.94;5185080;28;20064;-52
2023/01/26 08:52:15;;;;;;;26.15;8.43;;;1.40;99.90;;;0.97;100.00;101805.72;5186608;28;20438;-51
2023/01/26 08:54:47;;;;;;;23.17;7.85;;;1.40;99.90;;;0.93;100.00;101808.81;5187811;28;20038;-51
2023/01/26 08:57:20;;;;;;;22.63;7.30;;;1.30;99.90;;;0.97;100.00;101804.06;5187402;28;20113;-50
2023/01/26 08:59:54;;;;;;;26.05;7.88;;;1.40;99.90;;;1.01;100.00;101807.81;5186642;28;20053;-50
2023/01/26 09:02:26;;;;;;;23.52;8.13;;;1.40;99.90;;;1.03;100.00;101806.28;5187656;28;20046;-50
2023/01/26 09:04:58;;;;;;;28.88;7.35;;;1.40;99.90;;;1.05;100.00;101809.91;5187873;28;20084;-51
2023/01/26 09:07:30;;;;;;;26.50;7.97;;;1.40;99.90;;;1.07;100.00;101795.53;5201869;28;20050;-50
2023/01/26 09:10:02;;;;;;;23.77;6.88;;;1.50;99.90;;;1.09;100.00;101806.81;5185973;28;20056;-50
2023/01/26 09:12:34;;;;;;;28.73;8.18;;;1.50;99.90;;;1.12;100.00;101804.53;5185529;28;20057;-51
2023/01/26 09:15:09;;;;;;;28.80;8.50;;;1.50;99.90;;;1.10;100.00;101808.63;5190908;28;20045;-51
2023/01/26 09:17:42;;;;;;;30.08;9.05;;;1.50;99.90;;;1.15;100.00;101811.59;5192266;28;20511;-51
2023/01/26 09:20:14;;;;;;;34.28;10.23;;;1.50;99.90;;;1.15;100.00;101811.59;5191897;28;20038;-51
2023/01/26 09:22:47;;;;;;;27.58;8.30;;;1.50;99.90;;;1.15;100.00;101816.75;5184127;28;20041;-51
2023/01/26 09:25:20;;;;;;;30.85;8.85;;;1.50;99.90;;;1.12;100.00;101814.81;5182724;28;20045;-51
2023/01/26 09:27:53;;;;;;;30.90;8.90;;;1.50;99.90;;;1.26;100.00;101827.19;5184928;28;20057;-50
2023/01/26 09:30:26;;;;;;;37.20;10.48;;;1.70;99.90;;;1.33;100.00;101820.94;5184612;28;20137;-51
2023/01/26 09:32:59;;;;;;;31.13;8.85;;;1.70;99.90;;;1.27;100.00;101826.44;5185814;28;20046;-51
2023/01/26 09:35:32;;;;;;;35.50;9.05;;;1.70;99.90;;;1.22;100.00;101825.13;5193353;28;20049;-52
2023/01/26 09:38:04;;;;;;;33.33;8.52;;;1.70;99.90;;;1.21;100.00;101819.84;5185034;28;20042;-51
2023/01/26 09:40:45;;;;;;;32.05;9.63;;;1.60;99.90;;;1.19;100.00;101826.53;5184492;28;20057;-51
2023/01/26 09:43:30;;;;;;;30.30;7.82;;;1.60;99.90;;;1.19;100.00;101830.00;5184929;28;20053;-51
2023/01/26 09:46:20;;;;;;;24.33;8.13;;;1.60;99.90;;;1.23;100.00;101829.47;5184906;28;20038;-51
2023/01/26 09:49:06;;;;;;;29.27;8.35;;;1.60;99.90;;;1.24;100.00;101835.53;5183998;28;20056;-51
2023/01/26 09:51:42;;;;;;;32.17;8.65;;;1.60;99.90;;;1.26;100.00;101834.91;5185003;28;20068;-52
2023/01/26 09:54:26;;;;;;;29.88;8.27;;;1.60;99.90;;;1.29;100.00;101835.16;5185007;28;20049;-51
2023/01/26 09:57:01;;;;;;;28.25;8.15;;;1.70;99.90;;;1.32;100.00;101834.56;5185439;28;20068;-51
2023/01/26 09:59:39;;;;;;;33.10;8.93;;;1.70;99.90;;;1.36;100.00;101829.78;5185005;28;20100;-52
2023/01/26 10:02:38;;;;;;;29.98;7.75;;;1.70;99.90;;;1.42;100.00;101837.16;5193414;28;20129;-51
2023/01/26 10:05:19;;;;;;;28.55;8.70;;;1.80;99.90;;;1.44;100.00;101829.59;5196815;28;20045;-51
2023/01/26 10:07:51;;;;;;;31.58;8.88;;;1.80;99.90;;;1.48;100.00;101839.34;5211405;28;20037;-51
2023/01/26 10:10:31;;;;;;;27.30;7.22;;;1.80;99.90;;;1.47;100.00;101827.28;5211397;28;20522;-51
2023/01/26 10:13:04;;;;;;;27.17;8.80;;;1.80;99.90;;;1.45;100.00;101827.16;5211431;28;20041;-51
2023/01/26 10:15:42;;;;;;;30.98;8.90;;;1.80;99.90;;;1.47;100.00;101825.59;5211633;28;20056;-51
2023/01/26 10:18:20;;;;;;;28.67;7.78;;;1.80;99.90;;;1.49;100.00;101818.03;5208884;23;20149;-76
2023/01/26 10:20:55;;;;;;;29.48;8.43;;;1.80;99.90;;;1.53;100.00;101821.00;5164419;28;20148;-76
2023/01/26 10:23:32;;;;;;;23.50;7.20;;;1.80;99.90;;;1.57;100.00;101812.81;5169236;28;20051;-76
2023/01/26 10:26:15;;;;;;;23.58;7.90;;;1.90;99.90;;;1.62;100.00;101815.75;5175578;28;20151;-76
2023/01/26 10:28:51;;;;;;;31.92;8.60;;;2.00;99.90;;;1.63;100.00;101815.91;5167322;28;20047;-78
2023/01/26 10:31:27;;;;;;;30.15;8.90;;;2.00;99.90;;;1.63;100.00;101812.44;5165084;28;20046;-77
2023/01/26 10:34:11;;;;;;;32.92;8.98;;;2.00;99.90;;;1.60;100.00;101809.59;5142679;28;20728;-80
2023/01/26 10:36:46;;;;;;;29.65;8.43;;;2.00;99.90;;;1.59;100.00;101810.34;5169336;28;20126;-78
2023/01/26 10:39:19;;;;;;;27.63;8.80;;;1.90;99.90;;;1.59;100.00;101800.06;5135726;28;20590;-76
2023/01/26 10:41:59;;;;;;;28.08;8.55;;;1.90;99.90;;;1.59;100.00;101795.84;5167843;28;20145;-76
2023/01/26 10:44:34;;;;;;;31.05;8.93;;;1.90;99.90;;;1.60;100.00;101797.63;5167876;28;20573;-76
2023/01/26 10:47:15;;;;;;;32.53;9.25;;;2.00;99.90;;;1.63;100.00;101792.78;5167796;28;20134;-77
2023/01/26 10:49:49;;;;;;;27.55;8.35;;;2.00;99.90;;;1.69;100.00;101797.50;5167412;28;20061;-76
2023/01/26 10:52:24;;;;;;;26.52;8.10;;;2.00;99.90;;;1.74;100.00;101806.53;5167781;28;20057;-78
2023/01/26 10:55:13;;;;;;;32.22;9.25;;;2.10;99.90;;;1.75;100.00;101794.56;5168241;28;20054;-78
2023/01/26 10:57:47;;;;;;;25.52;7.47;;;2.10;99.90;;;1.73;100.00;101799.59;5166370;28;20057;-78
2023/01/26 11:00:29;;;;;;;30.98;7.50;;;2.10;99.90;;;1.72;100.00;101792.66;5132714;28;20042;-76
2023/01/26 11:03:17;;;;;;;27.25;7.38;;;2.10;99.90;;;1.73;100.00;101789.31;5163920;28;20041;-77
2023/01/26 11:06:08;;;;;;;26.48;8.15;;;2.10;99.90;;;1.74;100.00;101780.81;5186346;28;20072;-77
2023/01/26 11:08:41;;;;;;;23.30;6.68;;;2.10;99.90;;;1.77;100.00;101781.09;5188114;28;20038;-77
2023/01/26 11:11:26;;;;;;;30.98;7.75;;;2.10;99.90;;;1.77;100.00;101775.97;5187811;28;20395;-78
2023/01/26 11:14:18;;;;;;;26.00;8.20;;;2.20;99.90;;;1.75;100.00;101774.91;5203772;28;20050;-78
2023/01/26 11:16:58;;;;;;;23.33;7.20;;;2.10;99.90;;;1.76;100.00;101769.03;5184439;28;20045;-77
2023/01/26 11:20:08;;;;;;;33.53;8.50;;;2.10;99.90;;;1.79;100.00;101765.78;5200168;28;20053;-78
2023/01/26 11:22:54;;;;;;;25.02;7.03;;;2.10;99.90;;;1.83;100.00;101771.34;5183363;28;20049;-79
2023/01/26 11:25:34;;;;;;;28.85;7.80;;;2.20;99.90;;;1.86;100.00;101768.13;5185187;28;20058;-80
2023/01/26 11:28:28;;;;;;;28.83;7.63;;;2.20;99.90;;;1.85;100.00;101764.66;5147143;28;20050;-79
2023/01/26 11:31:16;;;;;;;27.98;7.78;;;2.20;99.90;;;1.85;100.00;101762.06;5156660;28;20081;-81
2023/01/26 11:34:05;;;;;;;34.28;10.13;;;2.20;99.90;;;1.86;100.00;101760.41;5180851;28;20050;-80
2023/01/26 11:36:49;;;;;;;26.40;8.07;;;2.20;99.90;;;1.97;100.00;101748.47;5165985;28;20046;-81